Time;durP1;ratioP1;P1;durP2;ratioP2;P2;SDS_P1;SDS_P2;PMS_P1;PMS_P2;Temp;Humidity;BMP_temperature;BMP_pressure;BME280_temperature;BME280_humidity;BME280_pressure;Samples;Min_cycle;Max_cycle;Signal;HPM_P1;HPM_P2
2022/12/07 00:01:24;;;;;;;4.85;1.10;;;4.30;99.90;;;;;;5034470;28;20436;-50
2022/12/07 00:03:52;;;;;;;7.93;1.30;;;4.30;99.90;;;;;;5034390;28;20087;-50
2022/12/07 00:06:18;;;;;;;11.65;1.05;;;4.00;99.90;;;;;;5016706;28;20045;-53
2022/12/07 00:08:45;;;;;;;7.13;1.23;;;4.00;99.90;;;;;;5034479;28;20425;-54
2022/12/07 00:11:19;;;;;;;8.43;1.55;;;4.20;99.90;;;;;;5034405;28;20041;-51
2022/12/07 00:13:46;;;;;;;6.85;1.00;;;4.00;99.90;;;;;;5016006;28;20049;-52
2022/12/07 00:16:18;;;;;;;4.90;1.40;;;4.10;99.90;;;;;;5016675;28;20065;-50
2022/12/07 00:18:44;;;;;;;9.02;1.20;;;4.30;99.90;;;;;;5034398;28;20042;-55
2022/12/07 00:21:13;;;;;;;7.20;1.10;;;4.30;99.90;;;;;;5034247;28;20045;-53
2022/12/07 00:23:40;;;;;;;7.70;0.93;;;4.60;99.90;;;;;;5034017;28;20044;-54
2022/12/07 00:26:07;;;;;;;5.53;0.85;;;4.60;99.90;;;;;;5016370;28;20041;-53
2022/12/07 00:28:33;;;;;;;6.50;0.80;;;4.60;99.90;;;;;;5034126;28;20049;-52
2022/12/07 00:31:05;;;;;;;5.40;0.80;;;4.70;99.90;;;;;;5033555;28;20061;-51
2022/12/07 00:33:32;;;;;;;3.80;0.70;;;4.60;99.90;;;;;;5033927;28;20045;-52
2022/12/07 00:35:59;;;;;;;3.70;0.82;;;4.60;99.90;;;;;;5015984;28;20501;-56
2022/12/07 00:38:29;;;;;;;2.42;0.60;;;4.60;99.90;;;;;;5033751;28;20083;-53
2022/12/07 00:40:59;;;;;;;4.82;0.80;;;4.60;99.90;;;;;;5033565;28;20171;-52
2022/12/07 00:43:26;;;;;;;2.70;0.60;;;4.60;99.90;;;;;;5033989;28;20045;-51
2022/12/07 00:45:53;;;;;;;6.85;0.98;;;4.70;99.90;;;;;;5033341;28;20481;-52
2022/12/07 00:48:18;;;;;;;5.28;0.98;;;4.70;99.90;;;;;;5033777;28;20049;-54
2022/12/07 00:50:44;;;;;;;10.75;1.25;;;4.70;99.90;;;;;;5033565;28;20037;-53
2022/12/07 00:53:10;;;;;;;9.73;1.25;;;4.70;99.90;;;;;;5033536;28;20505;-53
2022/12/07 00:55:36;;;;;;;4.30;1.45;;;4.70;99.90;;;;;;5034552;28;20029;-55
2022/12/07 00:58:03;;;;;;;5.53;1.15;;;4.70;99.90;;;;;;5053501;28;20501;-52
2022/12/07 01:00:29;;;;;;;6.30;0.95;;;4.60;99.90;;;;;;5035383;28;20112;-54
2022/12/07 01:02:54;;;;;;;5.97;1.38;;;4.70;99.90;;;;;;5053506;28;20119;-53
2022/12/07 01:05:20;;;;;;;10.27;1.20;;;4.70;99.90;;;;;;5053420;28;20166;-51
2022/12/07 01:07:46;;;;;;;5.43;1.15;;;4.40;99.90;;;;;;5053343;28;20037;-54
2022/12/07 01:10:13;;;;;;;6.18;1.33;;;4.50;99.90;;;;;;5053300;28;20052;-54
2022/12/07 01:12:39;;;;;;;3.10;0.90;;;4.20;99.90;;;;;;5053297;28;20485;-54
2022/12/07 01:15:06;;;;;;;7.13;1.00;;;4.20;99.90;;;;;;5035195;28;20049;-55
2022/12/07 01:17:31;;;;;;;8.75;1.48;;;4.20;99.90;;;;;;5052876;28;20068;-54
2022/12/07 01:19:57;;;;;;;6.97;1.00;;;4.30;99.90;;;;;;5030591;28;20375;-54
2022/12/07 01:22:23;;;;;;;10.07;1.55;;;4.30;99.90;;;;;;5032944;28;20060;-51
2022/12/07 01:24:48;;;;;;;7.90;1.27;;;4.20;99.90;;;;;;5033013;28;20040;-51
2022/12/07 01:27:14;;;;;;;6.70;0.98;;;4.30;99.90;;;;;;5033052;28;20079;-52
2022/12/07 01:29:40;;;;;;;11.20;1.10;;;4.30;99.90;;;;;;5032685;28;20033;-51
2022/12/07 01:32:06;;;;;;;11.65;2.10;;;4.50;99.90;;;;;;5032910;28;20114;-50
2022/12/07 01:34:32;;;;;;;9.32;1.00;;;4.30;99.90;;;;;;5032761;28;20080;-51
2022/12/07 01:36:57;;;;;;;7.25;1.83;;;4.40;99.90;;;;;;5032759;28;20118;-51
2022/12/07 01:39:24;;;;;;;7.03;1.20;;;4.30;99.90;;;;;;5032962;28;20103;-51
2022/12/07 01:41:50;;;;;;;10.02;1.33;;;4.50;99.90;;;;;;5032780;28;20048;-51
2022/12/07 01:44:15;;;;;;;9.68;1.52;;;4.50;99.90;;;;;;5032850;28;20030;-53
2022/12/07 01:46:49;;;;;;;5.60;1.10;;;4.30;99.90;;;;;;5032529;28;20049;-51
2022/12/07 01:49:42;;;;;;;11.07;1.40;;;4.40;99.90;;;;;;5032512;28;20489;-51
2022/12/07 01:52:27;;;;;;;12.90;2.47;;;4.30;99.90;;;;;;5032708;28;20044;-50
2022/12/07 01:54:56;;;;;;;9.55;1.10;;;4.30;99.90;;;;;;5032558;28;20076;-51
2022/12/07 01:57:22;;;;;;;8.10;1.15;;;4.20;99.90;;;;;;5047678;28;20029;-51
2022/12/07 01:59:50;;;;;;;9.15;1.20;;;4.40;99.90;;;;;;5052221;28;20098;-51
2022/12/07 02:02:33;;;;;;;8.65;1.30;;;4.40;99.90;;;;;;5034267;28;20059;-52
2022/12/07 02:05:00;;;;;;;7.70;1.25;;;4.20;99.90;;;;;;5052001;28;20064;-50
2022/12/07 02:07:27;;;;;;;14.95;1.42;;;4.30;99.90;;;;;;5034233;28;20047;-50
2022/12/07 02:09:53;;;;;;;13.80;1.55;;;4.30;99.90;;;;;;5051965;28;20037;-50
2022/12/07 02:12:20;;;;;;;4.93;1.05;;;4.40;99.90;;;;;;5051761;28;20083;-50
2022/12/07 02:14:46;;;;;;;5.50;1.02;;;4.30;99.90;;;;;;5052091;28;20497;-51
2022/12/07 02:17:26;;;;;;;6.93;1.30;;;4.50;99.90;;;;;;5052212;28;20055;-51
2022/12/07 02:20:16;;;;;;;9.30;1.50;;;4.60;99.90;;;;;;5052364;28;20049;-52
2022/12/07 02:23:06;;;;;;;9.55;1.20;;;4.60;99.90;;;;;;5052311;28;20048;-50
2022/12/07 02:26:16;;;;;;;8.52;1.20;;;4.60;99.90;;;;;;5052162;28;20048;-53
2022/12/07 02:29:11;;;;;;;8.32;1.13;;;4.80;99.90;;;;;;5031704;28;20061;-54
2022/12/07 02:32:04;;;;;;;10.60;1.30;;;4.80;99.90;;;;;;5051690;28;20064;-54
2022/12/07 02:34:47;;;;;;;11.50;1.77;;;4.60;99.90;;;;;;5051912;28;20122;-53
2022/12/07 02:37:34;;;;;;;6.60;1.05;;;4.70;99.90;;;;;;5051685;28;20048;-54
2022/12/07 02:40:04;;;;;;;3.22;0.60;;;4.70;99.90;;;;;;5051945;28;20037;-54
2022/12/07 02:42:40;;;;;;;7.90;0.80;;;4.60;99.90;;;;;;5051949;28;20040;-54
2022/12/07 02:45:08;;;;;;;7.40;0.98;;;4.60;99.90;;;;;;5052034;28;20033;-55
2022/12/07 02:47:35;;;;;;;5.15;0.77;;;4.60;99.90;;;;;;5051918;28;20371;-51
2022/12/07 02:50:04;;;;;;;5.13;0.80;;;4.60;99.90;;;;;;5052020;28;20052;-53
2022/12/07 02:52:30;;;;;;;5.07;1.45;;;4.50;99.90;;;;;;5051650;28;20048;-50
2022/12/07 02:54:56;;;;;;;4.13;0.63;;;4.60;99.90;;;;;;5051940;28;20037;-51
2022/12/07 02:57:43;;;;;;;2.30;0.52;;;4.60;99.90;;;;;;5051315;28;20044;-51
2022/12/07 03:00:18;;;;;;;7.68;0.93;;;4.60;99.90;;;;;;5051800;28;20425;-51
2022/12/07 03:02:59;;;;;;;5.05;0.90;;;4.60;99.90;;;;;;5051801;28;20041;-51
2022/12/07 03:05:52;;;;;;;5.97;0.80;;;4.40;99.90;;;;;;5051803;28;20037;-52
2022/12/07 03:08:23;;;;;;;7.22;1.73;;;4.40;99.90;;;;;;5053712;28;20041;-51
2022/12/07 03:11:06;;;;;;;7.57;0.90;;;4.30;99.90;;;;;;5055407;28;20107;-50
2022/12/07 03:13:55;;;;;;;6.00;1.40;;;4.30;99.90;;;;;;5055027;28;20037;-53
2022/12/07 03:16:33;;;;;;;7.60;1.30;;;3.90;99.90;;;;;;5055521;28;20033;-51
2022/12/07 03:19:03;;;;;;;9.57;1.45;;;4.10;99.90;;;;;;5055195;28;20469;-51
2022/12/07 03:21:37;;;;;;;7.00;1.23;;;3.90;99.90;;;;;;5055361;28;20041;-53
2022/12/07 03:24:09;;;;;;;6.82;0.95;;;4.10;99.90;;;;;;5037513;28;20041;-50
2022/12/07 03:26:40;;;;;;;10.98;1.13;;;3.90;99.90;;;;;;5054914;28;20048;-50
2022/12/07 03:29:14;;;;;;;11.90;1.30;;;3.90;99.90;;;;;;5054967;28;20120;-51
2022/12/07 03:31:45;;;;;;;10.00;1.80;;;3.90;99.90;;;;;;5054754;28;20053;-51
2022/12/07 03:34:18;;;;;;;5.97;0.90;;;3.80;99.90;;;;;;5055195;28;20511;-51
2022/12/07 03:36:54;;;;;;;7.20;1.15;;;4.10;99.90;;;;;;5036856;28;20048;-50
2022/12/07 03:39:27;;;;;;;8.07;1.27;;;4.00;99.90;;;;;;5054866;28;20056;-50
2022/12/07 03:41:54;;;;;;;10.50;2.22;;;3.70;99.90;;;;;;5054798;28;20060;-54
2022/12/07 03:44:20;;;;;;;8.80;1.48;;;3.70;99.90;;;;;;5055016;28;20040;-51
2022/12/07 03:47:02;;;;;;;11.23;2.70;;;4.00;99.90;;;;;;5055036;28;20049;-54
2022/12/07 03:49:42;;;;;;;11.43;1.90;;;3.60;99.90;;;;;;5054812;28;20458;-54
2022/12/07 03:52:07;;;;;;;12.30;1.48;;;3.80;99.90;;;;;;5054618;28;20048;-51
2022/12/07 03:54:41;;;;;;;12.38;2.08;;;3.60;99.90;;;;;;5054820;28;20037;-52
2022/12/07 03:57:08;;;;;;;8.48;1.25;;;3.60;99.90;;;;;;5040574;28;20042;-54
2022/12/07 03:59:34;;;;;;;11.48;1.48;;;3.90;99.90;;;;;;5017022;28;20041;-54
2022/12/07 04:02:05;;;;;;;8.35;1.55;;;3.90;99.90;;;;;;5034602;28;20088;-54
2022/12/07 04:04:32;;;;;;;7.20;1.05;;;3.80;99.90;;;;;;5034728;28;20521;-54
2022/12/07 04:06:57;;;;;;;9.45;1.25;;;3.60;99.90;;;;;;5034662;28;20374;-51
2022/12/07 04:09:23;;;;;;;5.78;1.23;;;3.50;99.90;;;;;;5034565;28;20042;-55
2022/12/07 04:11:49;;;;;;;6.20;1.00;;;3.80;99.90;;;;;;5016648;28;20506;-54
2022/12/07 04:14:20;;;;;;;7.28;0.93;;;3.50;99.90;;;;;;5034271;28;20456;-53
2022/12/07 04:16:52;;;;;;;7.10;2.35;;;3.50;99.90;;;;;;5034277;28;20033;-50
2022/12/07 04:19:20;;;;;;;8.30;1.05;;;3.50;99.90;;;;;;5033658;28;20038;-50
2022/12/07 04:21:46;;;;;;;4.75;1.90;;;3.80;99.90;;;;;;5034057;28;20033;-50
2022/12/07 04:24:14;;;;;;;14.27;1.67;;;3.90;99.90;;;;;;5016493;28;20508;-50
2022/12/07 04:26:41;;;;;;;4.90;1.00;;;4.00;99.90;;;;;;5016322;28;20095;-50
2022/12/07 04:29:07;;;;;;;10.75;1.75;;;3.80;99.90;;;;;;5034321;28;20041;-51
2022/12/07 04:31:33;;;;;;;7.45;1.75;;;4.20;99.90;;;;;;5033764;28;20045;-52
2022/12/07 04:33:59;;;;;;;11.77;1.15;;;4.20;99.90;;;;;;5034099;28;20510;-51
2022/12/07 04:36:25;;;;;;;10.63;1.73;;;4.00;99.90;;;;;;5015957;28;20081;-50
2022/12/07 04:38:53;;;;;;;8.40;1.13;;;4.30;99.90;;;;;;5033829;28;20041;-52
2022/12/07 04:41:19;;;;;;;9.80;1.25;;;4.30;99.90;;;;;;5033853;28;20163;-53
2022/12/07 04:43:44;;;;;;;8.85;1.10;;;4.20;99.90;;;;;;5033758;28;20450;-51
2022/12/07 04:46:10;;;;;;;8.80;0.90;;;4.40;99.90;;;;;;5033914;28;20041;-53
2022/12/07 04:48:36;;;;;;;7.32;0.95;;;4.50;99.90;;;;;;5033570;28;20484;-52
2022/12/07 04:51:03;;;;;;;8.13;1.05;;;4.40;99.90;;;;;;5033793;28;20041;-50
2022/12/07 04:53:29;;;;;;;5.55;0.98;;;4.30;99.90;;;;;;5033690;28;20429;-52
2022/12/07 04:55:54;;;;;;;5.28;1.13;;;4.20;99.90;;;;;;5037270;28;20037;-52
2022/12/07 04:58:20;;;;;;;11.38;1.35;;;4.20;99.90;;;;;;5053215;28;20072;-50
2022/12/07 05:00:46;;;;;;;7.03;1.00;;;4.20;99.90;;;;;;5053309;28;20041;-52
2022/12/07 05:03:11;;;;;;;5.68;0.80;;;3.80;99.90;;;;;;5052970;28;20033;-50
2022/12/07 05:05:40;;;;;;;11.73;1.45;;;4.10;99.90;;;;;;5052938;28;20036;-54
2022/12/07 05:08:06;;;;;;;5.28;1.13;;;3.80;99.90;;;;;;5053043;28;20044;-53
2022/12/07 05:10:32;;;;;;;12.25;1.27;;;3.60;99.90;;;;;;5053170;28;20043;-53
2022/12/07 05:12:57;;;;;;;8.45;1.25;;;3.70;99.90;;;;;;5052844;28;20404;-51
2022/12/07 05:15:23;;;;;;;6.22;1.08;;;3.60;99.90;;;;;;5034978;28;20086;-52
2022/12/07 05:17:48;;;;;;;10.30;1.20;;;3.70;99.90;;;;;;5052951;28;20040;-51
2022/12/07 05:20:14;;;;;;;3.97;1.02;;;3.70;99.90;;;;;;5035007;28;20098;-53
2022/12/07 05:22:40;;;;;;;10.20;1.17;;;3.30;99.90;;;;;;5052767;28;20036;-53
2022/12/07 05:25:06;;;;;;;10.23;1.98;;;3.40;99.90;;;;;;5033306;28;20496;-53
2022/12/07 05:27:31;;;;;;;10.77;1.17;;;3.50;99.90;;;;;;5033167;28;20049;-55
2022/12/07 05:29:57;;;;;;;3.47;0.80;;;3.20;99.90;;;;;;5014912;28;20046;-53
2022/12/07 05:32:22;;;;;;;7.65;1.52;;;3.20;99.90;;;;;;5032155;28;20056;-53
2022/12/07 05:34:48;;;;;;;4.65;0.80;;;3.30;99.90;;;;;;5032965;28;20080;-52
2022/12/07 05:37:14;;;;;;;9.52;1.60;;;3.20;99.90;;;;;;5032727;28;20037;-53
2022/12/07 05:39:42;;;;;;;7.80;1.10;;;2.90;99.90;;;;;;5032604;28;20038;-51
2022/12/07 05:42:13;;;;;;;7.85;0.95;;;3.10;99.90;;;;;;5032743;28;20044;-51
2022/12/07 05:44:43;;;;;;;12.63;2.13;;;3.00;99.90;;;;;;5032798;28;20033;-51
2022/12/07 05:47:10;;;;;;;13.93;1.30;;;2.80;99.90;;;;;;5032603;28;20493;-50
2022/12/07 05:49:35;;;;;;;4.40;0.88;;;2.90;99.90;;;;;;5032666;28;20040;-51
2022/12/07 05:52:02;;;;;;;9.43;1.30;;;3.00;99.90;;;;;;5032759;28;20429;-50
2022/12/07 05:54:28;;;;;;;5.53;0.85;;;3.10;99.90;;;;;;5032648;28;20393;-51
2022/12/07 05:56:54;;;;;;;10.30;1.35;;;3.00;99.90;;;;;;5044560;28;20029;-53
2022/12/07 05:59:22;;;;;;;6.65;1.10;;;3.10;99.90;;;;;;5034747;28;20120;-53
2022/12/07 06:01:49;;;;;;;10.95;1.50;;;3.10;99.90;;;;;;5052192;28;20052;-51
2022/12/07 06:04:16;;;;;;;6.85;1.52;;;3.00;99.90;;;;;;5052360;28;20061;-50
2022/12/07 06:06:41;;;;;;;6.88;0.85;;;3.10;99.90;;;;;;5034566;28;20503;-51
2022/12/07 06:09:07;;;;;;;5.43;1.20;;;3.30;99.90;;;;;;5052389;28;20032;-55
2022/12/07 06:14:17;;;;;;;6.43;1.10;;;3.40;99.90;;;;;;5051932;28;20052;-50
2022/12/07 06:16:43;;;;;;;6.82;0.90;;;3.50;99.90;;;;;;5052085;28;20036;-50
2022/12/07 06:19:09;;;;;;;5.53;1.30;;;3.20;99.90;;;;;;5052120;28;20029;-53
2022/12/07 06:21:35;;;;;;;6.25;1.55;;;3.20;99.90;;;;;;5034203;28;20672;-52
2022/12/07 06:24:00;;;;;;;6.18;1.05;;;3.20;99.90;;;;;;5052311;28;20048;-55
2022/12/07 06:26:26;;;;;;;4.38;0.80;;;3.10;99.90;;;;;;5051868;28;20043;-52
2022/12/07 06:28:52;;;;;;;6.20;0.85;;;3.30;99.90;;;;;;5051686;28;20477;-52
2022/12/07 06:31:17;;;;;;;2.67;0.70;;;3.10;99.90;;;;;;5051094;28;20064;-54
2022/12/07 06:33:43;;;;;;;4.68;0.75;;;3.20;99.90;;;;;;5050900;28;20084;-55
2022/12/07 06:36:09;;;;;;;4.82;0.88;;;3.30;99.90;;;;;;5051061;28;20473;-54
2022/12/07 06:38:35;;;;;;;4.05;0.82;;;2.90;99.90;;;;;;5033145;28;20048;-50
2022/12/07 06:41:01;;;;;;;4.55;0.98;;;2.80;99.90;;;;;;5051245;28;20120;-54
2022/12/07 06:43:29;;;;;;;3.00;1.52;;;2.90;99.90;;;;;;5052633;28;20120;-52
2022/12/07 06:45:55;;;;;;;4.50;0.60;;;2.70;99.90;;;;;;5037017;28;20052;-53
2022/12/07 06:48:21;;;;;;;2.90;0.80;;;2.70;99.90;;;;;;5055150;28;20382;-52
2022/12/07 06:50:47;;;;;;;4.47;0.80;;;2.80;99.90;;;;;;5055077;28;20043;-51
2022/12/07 06:53:13;;;;;;;5.97;0.90;;;2.90;99.90;;;;;;5054560;28;20044;-52
2022/12/07 06:55:39;;;;;;;7.15;0.88;;;2.70;99.90;;;;;;5052667;28;20097;-54
2022/12/07 06:58:05;;;;;;;4.90;0.85;;;3.00;99.90;;;;;;5034479;28;20071;-54
2022/12/07 07:00:31;;;;;;;5.70;1.30;;;3.00;99.90;;;;;;5017280;28;20537;-55
2022/12/07 07:02:56;;;;;;;4.53;1.10;;;2.80;99.90;;;;;;5034764;28;20488;-51
2022/12/07 07:05:22;;;;;;;11.43;1.10;;;3.10;99.90;;;;;;5034867;28;20041;-51
2022/12/07 07:07:49;;;;;;;8.32;1.10;;;3.10;99.90;;;;;;5000620;28;20541;-55
2022/12/07 07:10:15;;;;;;;7.30;1.10;;;3.20;99.90;;;;;;5034447;28;20387;-54
2022/12/07 07:12:40;;;;;;;6.75;1.27;;;3.20;99.90;;;;;;5034675;28;20041;-53
2022/12/07 07:15:06;;;;;;;9.40;1.63;;;3.00;99.90;;;;;;5034737;28;20474;-55
2022/12/07 07:17:32;;;;;;;15.68;1.42;;;3.00;99.90;;;;;;5034485;28;20045;-55
2022/12/07 07:19:58;;;;;;;6.93;1.15;;;3.10;99.90;;;;;;5034391;28;20379;-51
2022/12/07 07:22:23;;;;;;;3.45;0.93;;;3.00;99.90;;;;;;5034388;28;20056;-51
2022/12/07 07:24:49;;;;;;;10.38;1.50;;;3.20;99.90;;;;;;5016698;28;20091;-51
2022/12/07 07:27:15;;;;;;;9.30;1.83;;;3.10;99.90;;;;;;5034341;28;20107;-52
2022/12/07 07:29:40;;;;;;;6.30;1.40;;;3.30;99.90;;;;;;5033712;28;20513;-51
2022/12/07 07:32:07;;;;;;;10.52;1.65;;;3.00;99.90;;;;;;5033931;28;20124;-51
2022/12/07 07:34:33;;;;;;;11.82;1.80;;;3.00;99.90;;;;;;5016445;28;20116;-51
2022/12/07 07:36:59;;;;;;;7.63;1.50;;;2.90;99.90;;;;;;5016163;28;20434;-52
2022/12/07 07:39:24;;;;;;;11.23;1.50;;;3.10;99.90;;;;;;5034129;28;20051;-51
2022/12/07 07:41:50;;;;;;;6.85;1.13;;;2.80;99.90;;;;;;5033935;28;20045;-52
2022/12/07 07:44:15;;;;;;;9.70;1.35;;;3.10;99.90;;;;;;5034144;28;20084;-52
2022/12/07 07:46:41;;;;;;;6.18;1.20;;;2.90;99.90;;;;;;5033914;28;20103;-50
2022/12/07 07:49:08;;;;;;;6.97;1.33;;;2.80;99.90;;;;;;5016156;28;20091;-55
2022/12/07 07:51:34;;;;;;;6.70;1.08;;;3.00;99.90;;;;;;5033854;28;20490;-51
2022/12/07 07:54:00;;;;;;;9.45;1.38;;;2.80;99.90;;;;;;5015157;28;20095;-52
2022/12/07 07:56:25;;;;;;;8.45;1.02;;;3.10;99.90;;;;;;5041994;28;20037;-52
2022/12/07 07:58:55;;;;;;;8.25;1.40;;;3.20;99.90;;;;;;5053676;28;20044;-54
2022/12/07 08:01:21;;;;;;;8.90;1.60;;;3.10;99.90;;;;;;5053118;28;20035;-52
2022/12/07 08:03:47;;;;;;;9.52;1.55;;;2.90;99.90;;;;;;5053397;28;20037;-51
2022/12/07 08:06:13;;;;;;;10.18;1.50;;;2.90;99.90;;;;;;5053348;28;20080;-52
2022/12/07 08:08:38;;;;;;;8.52;1.30;;;3.00;99.90;;;;;;5035993;28;20072;-52
2022/12/07 08:11:08;;;;;;;6.78;1.17;;;3.10;99.90;;;;;;5035583;28;20542;-51
2022/12/07 08:13:34;;;;;;;11.85;2.70;;;3.00;99.90;;;;;;5053553;28;20053;-53
2022/12/07 08:16:04;;;;;;;8.15;1.60;;;3.00;99.90;;;;;;5035464;28;20045;-53
2022/12/07 08:18:30;;;;;;;14.77;2.10;;;2.90;99.90;;;;;;5053342;28;20071;-54
2022/12/07 08:21:00;;;;;;;10.60;2.08;;;3.00;99.90;;;;;;5053323;28;20651;-56
2022/12/07 08:23:26;;;;;;;7.78;1.90;;;2.90;99.90;;;;;;5045636;28;20033;-52
2022/12/07 08:25:52;;;;;;;5.18;1.23;;;2.90;99.90;;;;;;5025722;28;20074;-52
2022/12/07 08:28:18;;;;;;;10.00;1.50;;;3.10;99.90;;;;;;5042926;28;20085;-54
2022/12/07 08:30:43;;;;;;;9.20;1.40;;;2.80;99.90;;;;;;5041562;28;20053;-52
2022/12/07 08:33:10;;;;;;;10.77;1.85;;;2.90;99.90;;;;;;5043491;28;20040;-53
2022/12/07 08:35:36;;;;;;;11.60;1.50;;;2.80;99.90;;;;;;5042652;28;20159;-52
2022/12/07 08:38:02;;;;;;;7.60;1.40;;;3.10;99.90;;;;;;5040226;28;20140;-51
2022/12/07 08:40:28;;;;;;;6.85;1.13;;;3.20;99.90;;;;;;5042040;28;20426;-54
2022/12/07 08:42:54;;;;;;;10.52;1.33;;;3.30;99.90;;;;;;5042528;28;20068;-54
2022/12/07 08:45:21;;;;;;;11.43;1.73;;;3.40;99.90;;;;;;5009768;28;20128;-54
2022/12/07 08:48:07;;;;;;;8.43;1.25;;;3.40;99.90;;;;;;5024861;28;20036;-54
2022/12/07 08:50:36;;;;;;;10.88;2.63;;;3.60;99.90;;;;;;5042783;28;20497;-54
2022/12/07 08:53:04;;;;;;;10.77;1.50;;;3.70;99.90;;;;;;5022884;28;20045;-54
2022/12/07 08:55:30;;;;;;;14.15;1.52;;;3.70;99.90;;;;;;5045934;28;20084;-52
2022/12/07 08:57:58;;;;;;;6.57;1.75;;;4.00;99.90;;;;;;5032951;28;20389;-52
2022/12/07 09:00:25;;;;;;;4.95;1.13;;;4.20;99.90;;;;;;5032747;28;20112;-51
2022/12/07 09:02:51;;;;;;;6.43;0.90;;;4.20;99.90;;;;;;5033121;28;20077;-51
2022/12/07 09:05:17;;;;;;;3.10;0.70;;;4.30;99.90;;;;;;5033162;28;20073;-51
2022/12/07 09:07:50;;;;;;;4.22;1.88;;;4.40;99.90;;;;;;5033242;28;20049;-50
2022/12/07 09:10:15;;;;;;;2.05;0.70;;;4.40;99.90;;;;;;5033145;28;20378;-51
2022/12/07 09:12:41;;;;;;;4.82;0.93;;;4.50;99.90;;;;;;5015301;28;20048;-51
2022/12/07 09:15:08;;;;;;;6.00;1.10;;;4.60;99.90;;;;;;5033049;28;20378;-51
2022/12/07 09:17:34;;;;;;;3.92;0.63;;;4.70;99.90;;;;;;5032905;28;20052;-52
2022/12/07 09:20:00;;;;;;;3.40;0.90;;;5.20;99.90;;;;;;5033340;28;20042;-51
2022/12/07 09:22:30;;;;;;;7.45;0.90;;;4.70;99.90;;;;;;5032902;28;20556;-51
2022/12/07 09:25:00;;;;;;;6.25;0.93;;;4.70;99.90;;;;;;5033180;28;20042;-50
2022/12/07 09:27:26;;;;;;;5.65;1.10;;;4.60;99.90;;;;;;5032700;28;20075;-54
2022/12/07 09:29:52;;;;;;;5.70;1.02;;;4.50;99.90;;;;;;5032737;28;20041;-54
2022/12/07 09:32:18;;;;;;;7.97;1.33;;;4.50;99.90;;;;;;5032539;28;20060;-55
2022/12/07 09:34:44;;;;;;;9.32;1.25;;;4.30;99.90;;;;;;5032983;28;20051;-52
2022/12/07 09:37:10;;;;;;;9.25;1.30;;;4.30;99.90;;;;;;5032623;28;20071;-54
2022/12/07 09:39:38;;;;;;;5.43;1.55;;;4.40;99.90;;;;;;5014985;28;20108;-53
2022/12/07 09:42:05;;;;;;;10.30;1.42;;;4.40;99.90;;;;;;5015232;28;20045;-51
2022/12/07 09:44:32;;;;;;;10.65;1.85;;;4.30;99.90;;;;;;5014762;28;20048;-54
2022/12/07 09:46:59;;;;;;;10.30;1.48;;;4.30;99.90;;;;;;5032941;28;20033;-54
2022/12/07 09:49:28;;;;;;;9.45;1.88;;;4.20;99.90;;;;;;5014955;28;20099;-56
2022/12/07 09:52:24;;;;;;;9.55;1.50;;;4.30;99.90;;;;;;5032706;28;20045;-51
2022/12/07 09:54:51;;;;;;;7.55;1.30;;;4.30;99.90;;;;;;5032330;28;20056;-50
2022/12/07 09:57:27;;;;;;;8.40;1.67;;;4.30;99.90;;;;;;5047896;28;20099;-51
2022/12/07 09:59:56;;;;;;;8.55;1.13;;;4.40;99.90;;;;;;5052350;28;20432;-50
2022/12/07 10:02:41;;;;;;;7.70;1.38;;;4.50;99.90;;;;;;5052211;28;20037;-51
2022/12/07 10:05:13;;;;;;;8.27;1.20;;;4.70;99.90;;;;;;5052145;28;20041;-50
2022/12/07 10:07:39;;;;;;;8.93;2.13;;;4.80;99.90;;;;;;5052470;28;20041;-50
2022/12/07 10:10:23;;;;;;;9.77;1.33;;;4.90;99.90;;;;;;5052097;28;20045;-51
2022/12/07 10:13:02;;;;;;;8.07;1.30;;;5.00;99.90;;;;;;5052064;28;20539;-52
2022/12/07 10:15:52;;;;;;;8.30;1.33;;;5.30;99.90;;;;;;5051904;28;20040;-50
2022/12/07 10:18:41;;;;;;;7.30;1.33;;;5.20;99.90;;;;;;5051258;28;20478;-50
2022/12/07 10:21:20;;;;;;;10.20;1.40;;;5.30;99.90;;;;;;5052223;28;20112;-51
2022/12/07 10:24:21;;;;;;;9.68;1.20;;;5.30;99.90;;;;;;5051811;28;20564;-50
2022/12/07 10:26:47;;;;;;;18.75;2.85;;;5.30;99.90;;;;;;5051931;28;20045;-50
2022/12/07 10:29:17;;;;;;;5.97;1.40;;;5.40;99.90;;;;;;5052355;28;20120;-50
2022/12/07 10:31:45;;;;;;;11.77;1.88;;;5.40;99.90;;;;;;5033871;28;20111;-50
2022/12/07 10:34:32;;;;;;;9.40;1.85;;;5.50;99.90;;;;;;5052047;28;20096;-50
2022/12/07 10:37:13;;;;;;;9.43;1.58;;;5.60;99.90;;;;;;5051820;28;20041;-50
2022/12/07 10:39:47;;;;;;;7.90;1.42;;;5.70;99.90;;;;;;5052049;28;20051;-50
2022/12/07 10:42:28;;;;;;;8.00;1.27;;;5.60;99.90;;;;;;5034042;28;20041;-50
2022/12/07 10:45:11;;;;;;;9.70;1.77;;;5.60;99.90;;;;;;5051810;28;20059;-51
2022/12/07 10:47:59;;;;;;;10.20;1.50;;;5.60;99.90;;;;;;5052040;28;20416;-54
2022/12/07 10:50:44;;;;;;;12.13;1.73;;;5.40;99.90;;;;;;5051998;28;20053;-60
2022/12/07 10:53:36;;;;;;;5.10;1.17;;;4.80;99.90;;;;;;5051696;28;20604;-58
2022/12/07 10:56:32;;;;;;;6.27;1.47;;;4.40;99.90;;;;;;5042432;28;20053;-54
2022/12/07 10:59:04;;;;;;;5.20;0.73;;;4.20;99.90;;;;;;5031604;28;20285;-56
2022/12/07 11:01:46;;;;;;;8.10;0.87;;;4.00;99.90;;;;;;5031978;28;20409;-56
2022/12/07 11:04:30;;;;;;;7.60;2.08;;;4.00;99.90;;;;;;5031710;28;20095;-55
2022/12/07 11:07:15;;;;;;;4.32;0.70;;;4.20;99.90;;;;;;5031833;28;20049;-53
2022/12/07 11:10:18;;;;;;;3.63;0.70;;;4.10;99.90;;;;;;5031694;28;20080;-50
2022/12/07 11:13:07;;;;;;;2.60;1.00;;;4.10;99.90;;;;;;5014049;28;20095;-53
2022/12/07 11:15:48;;;;;;;2.47;0.77;;;4.20;99.90;;;;;;5031835;28;20041;-53
2022/12/07 11:18:32;;;;;;;5.28;1.10;;;4.30;99.90;;;;;;5031755;28;20195;-53
2022/12/07 11:21:04;;;;;;;5.40;0.98;;;4.50;99.90;;;;;;5031504;28;20040;-50
2022/12/07 11:23:49;;;;;;;6.10;0.93;;;4.40;99.90;;;;;;5031342;28;20080;-55
2022/12/07 11:26:31;;;;;;;3.47;0.57;;;4.40;99.90;;;;;;5031718;28;20203;-51
2022/12/07 11:29:06;;;;;;;3.63;0.93;;;4.60;99.90;;;;;;5033318;28;20037;-53
2022/12/07 11:32:04;;;;;;;5.53;0.93;;;4.50;99.90;;;;;;5035059;28;20053;-54
2022/12/07 11:34:51;;;;;;;6.22;1.02;;;4.60;99.90;;;;;;5035201;28;20137;-51
2022/12/07 11:37:25;;;;;;;6.72;1.13;;;4.70;99.90;;;;;;5035172;28;20038;-54
2022/12/07 11:39:56;;;;;;;6.65;1.13;;;5.10;99.90;;;;;;5035012;28;20120;-50
2022/12/07 11:42:27;;;;;;;7.05;1.48;;;5.10;99.90;;;;;;5035161;28;20048;-51
2022/12/07 11:45:14;;;;;;;7.63;1.10;;;5.00;99.90;;;;;;5035055;28;20041;-51
2022/12/07 11:48:09;;;;;;;5.88;1.23;;;4.90;99.90;;;;;;5034837;28;20519;-51
2022/12/07 11:50:37;;;;;;;10.68;1.40;;;5.10;99.90;;;;;;5017144;28;20056;-51
2022/12/07 11:53:09;;;;;;;9.57;1.48;;;5.00;99.90;;;;;;5034882;28;20037;-51
2022/12/07 11:56:07;;;;;;;8.13;1.17;;;5.20;99.90;;;;;;5036273;28;20064;-51
2022/12/07 11:58:33;;;;;;;10.38;1.50;;;5.20;99.90;;;;;;5050506;28;20048;-51
2022/12/07 12:01:20;;;;;;;5.47;1.15;;;5.10;99.90;;;;;;5054575;28;20152;-50
2022/12/07 12:04:11;;;;;;;6.60;1.10;;;5.10;99.90;;;;;;5054540;28;20112;-51
2022/12/07 12:06:38;;;;;;;8.75;1.30;;;5.00;99.90;;;;;;5053932;28;20422;-50
2022/12/07 12:09:09;;;;;;;7.85;1.30;;;5.10;99.90;;;;;;5054492;28;20041;-50
2022/12/07 12:12:12;;;;;;;11.03;1.00;;;5.10;99.90;;;;;;5054278;28;20041;-50
2022/12/07 12:14:38;;;;;;;;;;;5.20;99.90;;;;;;5052495;28;20268;-51
2022/12/07 12:17:06;;;;;;;3.80;1.00;;;5.30;99.90;;;;;;5024457;28;20436;-55
2022/12/07 12:19:44;;;;;;;3.83;0.90;;;5.20;99.90;;;;;;5050105;28;20056;-51
2022/12/07 12:22:18;;;;;;;5.95;1.35;;;5.20;99.90;;;;;;5054519;28;20367;-53
2022/12/07 12:24:48;;;;;;;4.30;1.00;;;5.00;99.90;;;;;;5048278;28;20433;-53
2022/12/07 12:27:33;;;;;;;7.68;1.05;;;5.30;99.90;;;;;;5042031;28;20063;-51
2022/12/07 12:30:05;;;;;;;11.23;1.38;;;5.20;99.90;;;;;;5040889;28;20037;-51
2022/12/07 12:32:43;;;;;;;5.28;0.88;;;5.40;99.90;;;;;;5044751;28;20059;-51
2022/12/07 12:35:31;;;;;;;10.43;1.73;;;5.40;99.90;;;;;;5024781;28;20092;-54
2022/12/07 12:38:48;;;;;;;8.02;0.90;;;5.40;99.90;;;;;;5051063;28;20076;-52
2022/12/07 12:42:05;;;;;;;9.52;1.00;;;5.20;99.90;;;;;;5020668;28;20052;-51
2022/12/07 12:44:33;;;;;;;5.90;0.88;;;4.90;99.90;;;;;;5033476;28;20193;-53
2022/12/07 12:47:03;;;;;;;5.47;0.73;;;4.80;99.90;;;;;;5033780;28;20077;-53
2022/12/07 12:49:28;;;;;;;8.75;1.00;;;4.70;99.90;;;;;;5033662;28;20073;-54
2022/12/07 12:51:55;;;;;;;8.57;1.95;;;4.70;99.90;;;;;;5033882;28;20073;-51
2022/12/07 12:54:27;;;;;;;7.00;1.15;;;4.60;99.90;;;;;;5033901;28;20293;-53
2022/12/07 12:57:22;;;;;;;9.07;1.25;;;4.50;99.90;;;;;;5033599;28;20095;-52
2022/12/07 12:59:53;;;;;;;6.55;1.20;;;4.50;99.90;;;;;;5033705;28;20037;-50
2022/12/07 13:02:28;;;;;;;2.92;0.70;;;4.50;99.90;;;;;;5033258;28;20037;-52
2022/12/07 13:04:59;;;;;;;4.53;0.90;;;4.40;99.90;;;;;;5033491;28;20044;-50
2022/12/07 13:07:47;;;;;;;4.95;1.15;;;4.50;99.90;;;;;;5033272;28;20050;-51
2022/12/07 13:10:30;;;;;;;3.10;0.80;;;4.30;99.90;;;;;;5033284;28;20399;-52
2022/12/07 13:13:00;;;;;;;4.38;0.80;;;4.30;99.90;;;;;;5033076;28;20115;-51
2022/12/07 13:15:44;;;;;;;2.47;0.70;;;4.30;99.90;;;;;;5033145;28;20045;-51
2022/12/07 13:18:28;;;;;;;4.32;0.95;;;4.30;99.90;;;;;;5033117;28;20045;-52
2022/12/07 13:21:09;;;;;;;4.95;0.70;;;4.30;99.90;;;;;;5032986;28;20038;-52